createdAt,value
2017-09-20T00:05:00.000Z,1012.713
2017-09-20T00:15:01.000Z,1012.615
2017-09-20T00:25:00.000Z,1012.657
2017-09-20T00:35:00.000Z,1012.54
2017-09-20T00:45:00.000Z,1012.555
2017-09-20T00:55:00.000Z,1012.532
2017-09-20T01:05:00.000Z,1012.553
2017-09-20T01:15:00.000Z,1012.459
2017-09-20T01:25:00.000Z,1012.376
2017-09-20T01:35:01.000Z,1012.412
2017-09-20T01:45:00.000Z,1012.419
2017-09-20T01:55:01.000Z,1012.347
2017-09-20T02:05:01.000Z,1012.213
2017-09-20T02:15:01.000Z,1012.303
2017-09-20T02:25:01.000Z,1012.372
2017-09-20T02:35:01.000Z,1012.393
2017-09-20T02:45:01.000Z,1012.445
2017-09-20T02:55:01.000Z,1012.463
2017-09-20T03:05:01.000Z,1012.461
2017-09-20T03:15:01.000Z,1012.507
2017-09-20T03:25:01.000Z,1012.553
2017-09-20T03:35:01.000Z,1012.558
2017-09-20T03:45:01.000Z,1012.676
2017-09-20T03:55:01.000Z,1012.629
2017-09-20T04:05:01.000Z,1012.573
2017-09-20T04:15:01.000Z,1012.536
2017-09-20T04:25:01.000Z,1012.487
2017-09-20T04:35:01.000Z,1012.54
2017-09-20T04:45:01.000Z,1012.607
2017-09-20T04:55:01.000Z,1012.669
2017-09-20T05:05:01.000Z,1012.723
2017-09-20T05:15:01.000Z,1012.725
2017-09-20T05:25:01.000Z,1012.814
2017-09-20T05:35:01.000Z,1012.793
2017-09-20T05:45:01.000Z,1012.779
2017-09-20T05:55:01.000Z,1012.78
2017-09-20T06:05:01.000Z,1012.742
2017-09-20T06:15:01.000Z,1012.848
2017-09-20T06:25:01.000Z,1012.905
2017-09-20T06:35:01.000Z,1012.883
2017-09-20T06:45:01.000Z,1012.924
2017-09-20T06:55:01.000Z,1013.043
2017-09-20T07:05:01.000Z,1013.063
2017-09-20T07:15:01.000Z,1013.156
2017-09-20T07:25:01.000Z,1013.162
2017-09-20T07:35:01.000Z,1013.161
2017-09-20T07:45:01.000Z,1013.161
2017-09-20T07:55:01.000Z,1013.222
2017-09-20T08:05:01.000Z,1013.259
2017-09-20T08:15:01.000Z,1013.347
2017-09-20T08:25:01.000Z,1013.288
2017-09-20T08:35:01.000Z,1013.313
2017-09-20T08:45:01.000Z,1013.329
2017-09-20T08:55:01.000Z,1013.364
2017-09-20T09:05:01.000Z,1013.38
2017-09-20T09:15:01.000Z,1013.42
2017-09-20T09:25:01.000Z,1013.485
2017-09-20T09:35:01.000Z,1013.465
2017-09-20T09:45:02.000Z,1013.452
2017-09-20T09:55:06.000Z,1013.48
2017-09-20T10:05:02.000Z,1013.476
2017-09-20T10:15:02.000Z,1013.46
2017-09-20T10:25:02.000Z,1013.448
2017-09-20T10:35:02.000Z,1013.395
2017-09-20T10:45:02.000Z,1013.365
2017-09-20T10:55:02.000Z,1013.292
2017-09-20T11:05:02.000Z,1013.201
2017-09-20T11:15:02.000Z,1013.296
2017-09-20T11:25:02.000Z,1013.242
2017-09-20T11:35:02.000Z,1013.182
2017-09-20T11:45:02.000Z,1013.143
2017-09-20T11:55:02.000Z,1013.047
2017-09-20T12:05:02.000Z,1012.989
2017-09-20T12:15:02.000Z,1012.998
2017-09-20T12:25:02.000Z,1013.005
2017-09-20T12:35:02.000Z,1013.026
2017-09-20T12:45:02.000Z,1012.98
2017-09-20T12:55:02.000Z,1013.02
2017-09-20T13:05:02.000Z,1012.95
2017-09-20T13:15:02.000Z,1012.891
2017-09-20T13:25:02.000Z,1012.862
2017-09-20T13:35:02.000Z,1012.809
2017-09-20T13:45:02.000Z,1012.852
2017-09-20T13:55:02.000Z,1012.849
2017-09-20T14:05:02.000Z,1012.858
2017-09-20T14:15:02.000Z,1012.823
2017-09-20T14:25:02.000Z,1012.864
2017-09-20T14:35:02.000Z,1012.868
2017-09-20T14:45:02.000Z,1012.953
2017-09-20T14:55:02.000Z,1012.944
2017-09-20T15:05:02.000Z,1012.928
2017-09-20T15:15:02.000Z,1012.927
2017-09-20T15:25:02.000Z,1012.895
2017-09-20T15:35:02.000Z,1012.931
2017-09-20T15:45:02.000Z,1012.967
2017-09-20T15:55:02.000Z,1012.932
2017-09-20T16:05:02.000Z,1012.867
2017-09-20T16:15:02.000Z,1012.889
2017-09-20T16:25:04.000Z,1012.959
2017-09-20T16:35:02.000Z,1012.948
2017-09-20T16:45:02.000Z,1012.975
2017-09-20T16:55:02.000Z,1012.934
2017-09-20T17:05:02.000Z,1012.956
2017-09-20T17:15:02.000Z,1012.982
2017-09-20T17:25:03.000Z,1012.988
2017-09-20T17:35:04.000Z,1013.114
2017-09-20T17:45:03.000Z,1013.151
2017-09-20T17:55:03.000Z,1013.276
2017-09-20T18:05:03.000Z,1013.316
2017-09-20T18:15:03.000Z,1013.437
2017-09-20T18:25:03.000Z,1013.489
2017-09-20T18:35:03.000Z,1013.614
2017-09-20T18:45:03.000Z,1013.643
2017-09-20T18:55:03.000Z,1013.573
2017-09-20T19:05:03.000Z,1013.502
2017-09-20T19:15:03.000Z,1013.542
2017-09-20T19:25:03.000Z,1013.564
2017-09-20T19:35:03.000Z,1013.61
2017-09-20T19:45:03.000Z,1013.565
2017-09-20T19:55:03.000Z,1013.506
2017-09-20T20:05:03.000Z,1013.499
2017-09-20T20:15:03.000Z,1013.498
2017-09-20T20:25:03.000Z,1013.556
2017-09-20T20:35:03.000Z,1013.587
2017-09-20T20:45:03.000Z,1013.631
2017-09-20T20:55:04.000Z,1013.64
2017-09-20T21:05:03.000Z,1013.674
2017-09-20T21:15:03.000Z,1013.669
2017-09-20T21:25:03.000Z,1013.623
2017-09-20T21:35:03.000Z,1013.602
2017-09-20T21:45:03.000Z,1013.586
2017-09-20T21:55:03.000Z,1013.619
2017-09-20T22:05:03.000Z,1013.598
2017-09-20T22:15:03.000Z,1013.66
2017-09-20T22:25:03.000Z,1013.676
2017-09-20T22:35:03.000Z,1013.662
2017-09-20T22:45:03.000Z,1013.582
2017-09-20T22:55:03.000Z,1013.65
2017-09-20T23:05:03.000Z,1013.706
2017-09-20T23:15:03.000Z,1013.722
2017-09-20T23:25:03.000Z,1013.676
2017-09-20T23:35:03.000Z,1013.667
2017-09-20T23:45:03.000Z,1013.661
2017-09-20T23:55:03.000Z,1013.667
